DAL127 KATL-KLGA
Flight info
| Callsign | DAL127 |
|---|---|
| Flight time | 1h 15m |
| Altitude | 37000 |
| Route | JACCC2 KELLN BYJAC Q60 HURTS PROUD2 |
| Aircraft | A321/M-SDE3FGHIRWY/LB1 |
Departure
| Time | 2026-05-06 21:46 |
|---|---|
| Airport | Hartsfield Jackson Atlanta International Airport (KATL) |
Arrival
| Time | 2026-05-06 23:02 |
|---|---|
| Airport | LaGuardia Airport (KLGA) |
| Time | Latitude | Longitude | Altitude | Speed | Heading |
|---|---|---|---|---|---|
| 2026-05-06 21:23 | 33.63916 | -84.43645 | 1007 ft | 0 kts | 90° |
| 2026-05-06 21:38 | 33.63916 | -84.43656 | 1006 ft | 4 kts | 89° |
| 2026-05-06 21:38 | 33.63918 | -84.43688 | 1006 ft | 4 kts | 108° |
| 2026-05-06 21:38 | 33.63931 | -84.43713 | 1006 ft | 4 kts | 147° |
| 2026-05-06 21:38 | 33.63949 | -84.43721 | 1006 ft | 1 kts | 180° |
| 2026-05-06 21:39 | 33.63952 | -84.43721 | 1006 ft | 0 kts | 180° |
| 2026-05-06 21:41 | 33.63942 | -84.43721 | 1006 ft | 7 kts | 180° |
| 2026-05-06 21:41 | 33.63851 | -84.43720 | 1006 ft | 16 kts | 180° |
| 2026-05-06 21:42 | 33.63733 | -84.43719 | 1006 ft | 18 kts | 180° |
| 2026-05-06 21:42 | 33.63665 | -84.43639 | 1006 ft | 17 kts | 95° |
| 2026-05-06 21:42 | 33.63666 | -84.43465 | 1006 ft | 26 kts | 88° |
| 2026-05-06 21:42 | 33.63673 | -84.43217 | 1006 ft | 32 kts | 91° |
| 2026-05-06 21:43 | 33.63663 | -84.42948 | 1006 ft | 33 kts | 92° |
| 2026-05-06 21:43 | 33.63656 | -84.42677 | 1007 ft | 32 kts | 92° |
| 2026-05-06 21:43 | 33.63655 | -84.42405 | 1007 ft | 33 kts | 89° |
| 2026-05-06 21:43 | 33.63634 | -84.42162 | 1007 ft | 23 kts | 135° |
| 2026-05-06 21:44 | 33.63582 | -84.41998 | 1007 ft | 22 kts | 92° |
| 2026-05-06 21:44 | 33.63581 | -84.41788 | 1006 ft | 30 kts | 91° |
| 2026-05-06 21:44 | 33.63574 | -84.41506 | 1005 ft | 35 kts | 90° |
| 2026-05-06 21:44 | 33.63583 | -84.41218 | 1006 ft | 34 kts | 89° |
| 2026-05-06 21:45 | 33.63580 | -84.40965 | 1006 ft | 22 kts | 99° |
| 2026-05-06 21:45 | 33.63491 | -84.40914 | 1007 ft | 12 kts | 203° |
| 2026-05-06 21:45 | 33.63473 | -84.41008 | 1007 ft | 14 kts | 269° |
| 2026-05-06 21:45 | 33.63469 | -84.41298 | 1006 ft | 66 kts | 269° |
| 2026-05-06 21:46 | 33.63468 | -84.42089 | 1007 ft | 121 kts | 269° |
| 2026-05-06 21:46 | 33.63471 | -84.43273 | 1009 ft | 161 kts | 271° |
| 2026-05-06 21:46 | 33.63504 | -84.44633 | 1440 ft | 162 kts | 265° |
| 2026-05-06 21:46 | 33.63493 | -84.45982 | 1924 ft | 162 kts | 266° |
| 2026-05-06 21:47 | 33.63435 | -84.47332 | 2424 ft | 161 kts | 255° |
| 2026-05-06 21:47 | 33.62990 | -84.48564 | 2749 ft | 168 kts | 240° |
| 2026-05-06 21:47 | 33.62423 | -84.49872 | 2885 ft | 184 kts | 242° |
| 2026-05-06 21:47 | 33.61816 | -84.51297 | 3002 ft | 201 kts | 242° |
| 2026-05-06 21:48 | 33.61149 | -84.52876 | 3138 ft | 224 kts | 242° |
| 2026-05-06 21:48 | 33.60418 | -84.54612 | 3384 ft | 239 kts | 242° |
| 2026-05-06 21:48 | 33.59667 | -84.56403 | 3877 ft | 241 kts | 242° |
| 2026-05-06 21:48 | 33.58652 | -84.57995 | 4330 ft | 246 kts | 216° |
| 2026-05-06 21:49 | 33.57020 | -84.58663 | 4803 ft | 255 kts | 192° |
| 2026-05-06 21:49 | 33.55234 | -84.58789 | 5280 ft | 258 kts | 184° |
| 2026-05-06 21:49 | 33.53431 | -84.58741 | 5769 ft | 260 kts | 182° |
| 2026-05-06 21:49 | 33.51612 | -84.58651 | 6231 ft | 262 kts | 182° |
| 2026-05-06 21:50 | 33.49776 | -84.58568 | 6656 ft | 266 kts | 182° |
| 2026-05-06 21:50 | 33.47941 | -84.58134 | 7063 ft | 278 kts | 160° |
| 2026-05-06 21:50 | 33.46417 | -84.56646 | 7454 ft | 295 kts | 130° |
| 2026-05-06 21:50 | 33.45682 | -84.54347 | 7828 ft | 309 kts | 99° |
| 2026-05-06 21:51 | 33.45571 | -84.51721 | 8222 ft | 314 kts | 94° |
| 2026-05-06 21:51 | 33.45557 | -84.49115 | 8594 ft | 318 kts | 92° |
| 2026-05-06 21:51 | 33.45575 | -84.46444 | 9239 ft | 322 kts | 91° |
| 2026-05-06 21:51 | 33.45598 | -84.43749 | 9972 ft | 327 kts | 91° |
| 2026-05-06 21:52 | 33.45611 | -84.40955 | 10299 ft | 346 kts | 92° |
| 2026-05-06 21:52 | 33.45610 | -84.37977 | 10442 ft | 369 kts | 91° |
| 2026-05-06 21:52 | 33.45846 | -84.34818 | 10588 ft | 392 kts | 80° |
| 2026-05-06 21:52 | 33.46608 | -84.31633 | 10976 ft | 403 kts | 68° |
| 2026-05-06 21:53 | 33.47843 | -84.28601 | 11555 ft | 407 kts | 60° |
| 2026-05-06 21:53 | 33.49192 | -84.25604 | 12178 ft | 411 kts | 60° |
| 2026-05-06 21:53 | 33.51360 | -84.20751 | 13127 ft | 418 kts | 61° |
| 2026-05-06 21:53 | 33.54125 | -84.14532 | 14255 ft | 427 kts | 61° |
| 2026-05-06 21:54 | 33.56918 | -84.08264 | 15287 ft | 435 kts | 60° |
| 2026-05-06 21:54 | 33.59785 | -84.01811 | 16368 ft | 442 kts | 60° |
| 2026-05-06 21:54 | 33.62698 | -83.95244 | 17406 ft | 449 kts | 59° |
| 2026-05-06 21:54 | 33.65654 | -83.88580 | 18378 ft | 456 kts | 59° |
| 2026-05-06 21:55 | 33.68664 | -83.81795 | 19240 ft | 463 kts | 59° |
| 2026-05-06 21:55 | 33.71702 | -83.74919 | 20140 ft | 469 kts | 59° |
| 2026-05-06 21:55 | 33.74767 | -83.67947 | 21020 ft | 475 kts | 58° |
| 2026-05-06 21:55 | 33.78000 | -83.60976 | 21879 ft | 479 kts | 54° |
| 2026-05-06 21:56 | 33.81649 | -83.54229 | 22668 ft | 485 kts | 51° |
| 2026-05-06 21:56 | 33.85443 | -83.47481 | 23564 ft | 489 kts | 51° |
| 2026-05-06 21:56 | 33.89197 | -83.40591 | 24236 ft | 495 kts | 52° |
| 2026-05-06 21:56 | 33.92919 | -83.33565 | 24943 ft | 500 kts | 52° |
| 2026-05-06 21:57 | 33.96655 | -83.26468 | 25614 ft | 504 kts | 52° |
| 2026-05-06 21:57 | 34.00444 | -83.19310 | 26274 ft | 508 kts | 52° |
| 2026-05-06 21:57 | 34.04273 | -83.12103 | 26901 ft | 514 kts | 53° |
| 2026-05-06 21:57 | 34.08154 | -83.04785 | 27433 ft | 520 kts | 53° |
| 2026-05-06 21:58 | 34.12055 | -82.97391 | 28038 ft | 525 kts | 53° |
| 2026-05-06 21:58 | 34.15928 | -82.90015 | 28616 ft | 529 kts | 53° |
| 2026-05-06 21:58 | 34.19852 | -82.82484 | 29366 ft | 528 kts | 53° |
| 2026-05-06 21:58 | 34.23745 | -82.74994 | 30148 ft | 525 kts | 54° |
| 2026-05-06 21:59 | 34.27624 | -82.67522 | 30865 ft | 523 kts | 54° |
| 2026-05-06 21:59 | 34.31509 | -82.60034 | 31491 ft | 523 kts | 53° |
| 2026-05-06 21:59 | 34.35381 | -82.52564 | 32163 ft | 523 kts | 53° |
| 2026-05-06 21:59 | 34.39237 | -82.45099 | 32832 ft | 522 kts | 53° |
| 2026-05-06 22:00 | 34.43026 | -82.37731 | 33497 ft | 521 kts | 53° |
| 2026-05-06 22:00 | 34.46764 | -82.30249 | 34263 ft | 518 kts | 56° |
| 2026-05-06 22:00 | 34.50238 | -82.22589 | 34767 ft | 521 kts | 57° |
| 2026-05-06 22:00 | 34.54047 | -82.15130 | 35103 ft | 516 kts | 44° |
| 2026-05-06 22:01 | 34.58790 | -82.08612 | 35566 ft | 515 kts | 41° |
| 2026-05-06 22:01 | 34.63544 | -82.02131 | 36058 ft | 515 kts | 40° |
| 2026-05-06 22:01 | 34.68297 | -81.95578 | 36558 ft | 516 kts | 40° |
| 2026-05-06 22:01 | 34.73034 | -81.89003 | 36998 ft | 517 kts | 39° |
| 2026-05-06 22:02 | 34.82589 | -81.75789 | 36981 ft | 524 kts | 39° |
| 2026-05-06 22:02 | 34.92214 | -81.62406 | 36982 ft | 524 kts | 39° |
| 2026-05-06 22:03 | 35.01830 | -81.48968 | 36989 ft | 527 kts | 39° |
| 2026-05-06 22:03 | 35.11487 | -81.35456 | 36985 ft | 528 kts | 39° |
| 2026-05-06 22:04 | 35.21115 | -81.21912 | 37007 ft | 528 kts | 39° |
| 2026-05-06 22:04 | 35.30675 | -81.08414 | 36995 ft | 529 kts | 39° |
| 2026-05-06 22:05 | 35.40305 | -80.94776 | 36996 ft | 529 kts | 39° |
| 2026-05-06 22:05 | 35.49936 | -80.81064 | 37024 ft | 529 kts | 39° |
| 2026-05-06 22:06 | 35.59530 | -80.67347 | 37002 ft | 529 kts | 39° |
| 2026-05-06 22:06 | 35.69112 | -80.53616 | 36998 ft | 528 kts | 39° |
| 2026-05-06 22:07 | 35.78659 | -80.39868 | 37012 ft | 528 kts | 39° |
| 2026-05-06 22:07 | 35.88105 | -80.26190 | 36967 ft | 527 kts | 39° |
| 2026-05-06 22:08 | 35.97379 | -80.12058 | 36942 ft | 538 kts | 49° |
| 2026-05-06 22:08 | 36.05483 | -79.96498 | 36984 ft | 538 kts | 49° |
| 2026-05-06 22:09 | 36.13776 | -79.81117 | 36984 ft | 535 kts | 45° |
| 2026-05-06 22:09 | 36.22393 | -79.66293 | 36968 ft | 533 kts | 45° |
| 2026-05-06 22:10 | 36.30877 | -79.51196 | 36963 ft | 533 kts | 45° |
| 2026-05-06 22:10 | 36.39363 | -79.36129 | 36946 ft | 531 kts | 45° |
| 2026-05-06 22:11 | 36.47799 | -79.21093 | 36964 ft | 529 kts | 46° |
| 2026-05-06 22:11 | 36.56140 | -79.06116 | 36947 ft | 530 kts | 46° |
| 2026-05-06 22:12 | 36.64499 | -78.90988 | 36928 ft | 530 kts | 46° |
| 2026-05-06 22:12 | 36.72546 | -78.75497 | 36937 ft | 540 kts | 54° |
| 2026-05-06 22:13 | 36.79500 | -78.58857 | 36962 ft | 539 kts | 53° |
| 2026-05-06 22:13 | 36.86441 | -78.42303 | 36961 ft | 538 kts | 54° |
| 2026-05-06 22:14 | 36.93324 | -78.25700 | 36934 ft | 538 kts | 54° |
| 2026-05-06 22:14 | 37.00194 | -78.09082 | 36921 ft | 539 kts | 54° |
| 2026-05-06 22:15 | 37.07022 | -77.92481 | 36954 ft | 539 kts | 54° |
| 2026-05-06 22:15 | 37.13854 | -77.75731 | 36955 ft | 539 kts | 54° |
| 2026-05-06 22:16 | 37.20672 | -77.58995 | 36952 ft | 539 kts | 54° |
| 2026-05-06 22:16 | 37.27462 | -77.42223 | 36950 ft | 537 kts | 54° |
| 2026-05-06 22:17 | 37.34202 | -77.25464 | 36941 ft | 537 kts | 55° |
| 2026-05-06 22:17 | 37.40926 | -77.08673 | 36937 ft | 536 kts | 55° |
| 2026-05-06 22:18 | 37.44481 | -77.00491 | 36926 ft | 522 kts | 44° |
| 2026-05-06 22:18 | 37.49231 | -76.94114 | 36932 ft | 493 kts | 26° |
| 2026-05-06 22:18 | 37.54888 | -76.89717 | 36904 ft | 471 kts | 14° |
| 2026-05-06 22:18 | 37.60731 | -76.85873 | 36913 ft | 474 kts | 14° |
| 2026-05-06 22:19 | 37.71261 | -76.78799 | 36925 ft | 475 kts | 15° |
| 2026-05-06 22:19 | 37.77101 | -76.74889 | 36919 ft | 474 kts | 15° |
| 2026-05-06 22:20 | 37.82937 | -76.70986 | 36912 ft | 475 kts | 15° |
| 2026-05-06 22:20 | 37.88746 | -76.67090 | 36910 ft | 474 kts | 14° |
| 2026-05-06 22:21 | 37.94630 | -76.63324 | 36882 ft | 473 kts | 13° |
| 2026-05-06 22:21 | 38.00562 | -76.59634 | 36879 ft | 475 kts | 13° |
| 2026-05-06 22:22 | 38.06509 | -76.55898 | 36882 ft | 477 kts | 13° |
| 2026-05-06 22:22 | 38.12456 | -76.52115 | 36927 ft | 478 kts | 13° |
| 2026-05-06 22:23 | 38.18375 | -76.48330 | 36892 ft | 479 kts | 13° |
| 2026-05-06 22:23 | 38.21333 | -76.46306 | 36889 ft | 491 kts | 21° |
| 2026-05-06 22:23 | 38.24162 | -76.43797 | 36883 ft | 496 kts | 23° |
| 2026-05-06 22:24 | 38.29797 | -76.38678 | 36886 ft | 497 kts | 23° |
| 2026-05-06 22:24 | 38.35383 | -76.33549 | 36913 ft | 498 kts | 24° |
| 2026-05-06 22:25 | 38.41005 | -76.28364 | 36902 ft | 498 kts | 24° |
| 2026-05-06 22:25 | 38.46634 | -76.23189 | 36899 ft | 498 kts | 23° |
| 2026-05-06 22:26 | 38.51321 | -76.18881 | 36895 ft | 499 kts | 24° |
| 2026-05-06 22:26 | 38.57874 | -76.12844 | 36885 ft | 499 kts | 23° |
| 2026-05-06 22:27 | 38.63513 | -76.07645 | 36889 ft | 499 kts | 24° |
| 2026-05-06 22:27 | 38.68198 | -76.03308 | 36479 ft | 500 kts | 24° |
| 2026-05-06 22:28 | 38.71023 | -76.00684 | 35715 ft | 503 kts | 24° |
| 2026-05-06 22:28 | 38.73882 | -75.98031 | 34812 ft | 511 kts | 24° |
| 2026-05-06 22:28 | 38.76789 | -75.95338 | 33795 ft | 520 kts | 25° |
| 2026-05-06 22:28 | 38.79751 | -75.92593 | 32653 ft | 528 kts | 26° |
| 2026-05-06 22:29 | 38.82707 | -75.89841 | 31575 ft | 534 kts | 26° |
| 2026-05-06 22:29 | 38.85719 | -75.87025 | 30648 ft | 535 kts | 27° |
| 2026-05-06 22:29 | 38.88758 | -75.84186 | 29495 ft | 541 kts | 27° |
| 2026-05-06 22:29 | 38.91799 | -75.81338 | 28456 ft | 541 kts | 27° |
| 2026-05-06 22:30 | 38.94815 | -75.78503 | 27125 ft | 532 kts | 28° |
| 2026-05-06 22:30 | 38.97808 | -75.75679 | 25730 ft | 537 kts | 28° |
| 2026-05-06 22:30 | 39.00790 | -75.72854 | 25341 ft | 525 kts | 28° |
| 2026-05-06 22:30 | 39.03683 | -75.70093 | 25100 ft | 512 kts | 28° |
| 2026-05-06 22:31 | 39.06528 | -75.67384 | 24864 ft | 507 kts | 28° |
| 2026-05-06 22:31 | 39.09361 | -75.64698 | 24635 ft | 504 kts | 28° |
| 2026-05-06 22:31 | 39.12184 | -75.62030 | 24401 ft | 502 kts | 28° |
| 2026-05-06 22:31 | 39.14960 | -75.59413 | 24200 ft | 500 kts | 28° |
| 2026-05-06 22:32 | 39.17772 | -75.56756 | 23979 ft | 500 kts | 28° |
| 2026-05-06 22:32 | 39.20562 | -75.54100 | 23816 ft | 498 kts | 28° |
| 2026-05-06 22:32 | 39.23350 | -75.51440 | 23854 ft | 499 kts | 28° |
| 2026-05-06 22:32 | 39.26165 | -75.48818 | 23643 ft | 496 kts | 27° |
| 2026-05-06 22:33 | 39.28989 | -75.46278 | 23424 ft | 494 kts | 26° |
| 2026-05-06 22:33 | 39.31825 | -75.43789 | 23158 ft | 491 kts | 25° |
| 2026-05-06 22:33 | 39.34662 | -75.41324 | 22901 ft | 489 kts | 25° |
| 2026-05-06 22:33 | 39.37445 | -75.38906 | 22648 ft | 488 kts | 25° |
| 2026-05-06 22:34 | 39.40250 | -75.36447 | 22380 ft | 486 kts | 26° |
| 2026-05-06 22:34 | 39.43038 | -75.33980 | 22120 ft | 484 kts | 26° |
| 2026-05-06 22:34 | 39.45813 | -75.31508 | 21865 ft | 482 kts | 26° |
| 2026-05-06 22:34 | 39.48566 | -75.29044 | 21601 ft | 479 kts | 27° |
| 2026-05-06 22:35 | 39.51305 | -75.26587 | 21358 ft | 477 kts | 27° |
| 2026-05-06 22:35 | 39.54013 | -75.24109 | 21131 ft | 476 kts | 27° |
| 2026-05-06 22:35 | 39.56659 | -75.21636 | 20691 ft | 473 kts | 28° |
| 2026-05-06 22:35 | 39.59303 | -75.19129 | 20180 ft | 468 kts | 29° |
| 2026-05-06 22:36 | 39.61915 | -75.16639 | 19666 ft | 463 kts | 29° |
| 2026-05-06 22:36 | 39.64506 | -75.14171 | 19166 ft | 459 kts | 29° |
| 2026-05-06 22:36 | 39.67068 | -75.11747 | 18669 ft | 453 kts | 29° |
| 2026-05-06 22:36 | 39.69634 | -75.09381 | 18173 ft | 447 kts | 28° |
| 2026-05-06 22:37 | 39.72199 | -75.07132 | 17646 ft | 442 kts | 27° |
| 2026-05-06 22:37 | 39.74734 | -75.04987 | 17216 ft | 439 kts | 26° |
| 2026-05-06 22:37 | 39.77304 | -75.02835 | 16881 ft | 438 kts | 26° |
| 2026-05-06 22:37 | 39.79845 | -75.00700 | 16548 ft | 428 kts | 26° |
| 2026-05-06 22:38 | 39.82294 | -74.98614 | 16418 ft | 412 kts | 27° |
| 2026-05-06 22:38 | 39.84602 | -74.96616 | 16274 ft | 383 kts | 27° |
| 2026-05-06 22:38 | 39.86741 | -74.94723 | 15897 ft | 363 kts | 27° |
| 2026-05-06 22:38 | 39.88794 | -74.92866 | 15189 ft | 356 kts | 27° |
| 2026-05-06 22:39 | 39.90812 | -74.91031 | 14441 ft | 354 kts | 28° |
| 2026-05-06 22:39 | 39.92715 | -74.89005 | 14079 ft | 359 kts | 38° |
| 2026-05-06 22:39 | 39.94444 | -74.86604 | 13634 ft | 363 kts | 43° |
| 2026-05-06 22:39 | 39.96137 | -74.84174 | 13177 ft | 363 kts | 43° |
| 2026-05-06 22:40 | 39.97820 | -74.81756 | 12889 ft | 357 kts | 43° |
| 2026-05-06 22:40 | 39.99495 | -74.79348 | 12459 ft | 357 kts | 43° |
| 2026-05-06 22:40 | 40.01153 | -74.76963 | 12147 ft | 352 kts | 43° |
| 2026-05-06 22:40 | 40.02788 | -74.74621 | 11569 ft | 344 kts | 43° |
| 2026-05-06 22:41 | 40.06010 | -74.70008 | 10812 ft | 344 kts | 43° |
| 2026-05-06 22:41 | 40.07615 | -74.67706 | 10453 ft | 342 kts | 43° |
| 2026-05-06 22:41 | 40.09187 | -74.65446 | 10088 ft | 338 kts | 44° |
| 2026-05-06 22:42 | 40.10753 | -74.63190 | 10012 ft | 333 kts | 43° |
| 2026-05-06 22:42 | 40.12311 | -74.60944 | 10016 ft | 333 kts | 43° |
| 2026-05-06 22:42 | 40.13868 | -74.58704 | 9720 ft | 334 kts | 44° |
| 2026-05-06 22:42 | 40.15429 | -74.56455 | 9291 ft | 333 kts | 44° |
| 2026-05-06 22:43 | 40.16973 | -74.54230 | 8963 ft | 328 kts | 44° |
| 2026-05-06 22:43 | 40.18498 | -74.52032 | 8718 ft | 322 kts | 44° |
| 2026-05-06 22:43 | 40.20000 | -74.49860 | 8609 ft | 321 kts | 44° |
| 2026-05-06 22:43 | 40.21541 | -74.47742 | 8514 ft | 320 kts | 41° |
| 2026-05-06 22:44 | 40.23127 | -74.45708 | 8364 ft | 319 kts | 39° |
| 2026-05-06 22:44 | 40.24732 | -74.43715 | 8186 ft | 317 kts | 39° |
| 2026-05-06 22:44 | 40.26335 | -74.41741 | 8006 ft | 316 kts | 39° |
| 2026-05-06 22:44 | 40.27930 | -74.39769 | 7830 ft | 314 kts | 39° |
| 2026-05-06 22:45 | 40.29489 | -74.37824 | 7665 ft | 314 kts | 39° |
| 2026-05-06 22:45 | 40.31072 | -74.35838 | 7475 ft | 314 kts | 39° |
| 2026-05-06 22:45 | 40.32642 | -74.33856 | 7298 ft | 312 kts | 40° |
| 2026-05-06 22:45 | 40.34202 | -74.31881 | 7123 ft | 311 kts | 40° |
| 2026-05-06 22:46 | 40.35750 | -74.29919 | 6948 ft | 308 kts | 40° |
| 2026-05-06 22:46 | 40.37286 | -74.27966 | 6770 ft | 307 kts | 40° |
| 2026-05-06 22:46 | 40.38808 | -74.26028 | 6598 ft | 304 kts | 40° |
| 2026-05-06 22:46 | 40.40325 | -74.24098 | 6412 ft | 303 kts | 40° |
| 2026-05-06 22:47 | 40.41843 | -74.22169 | 6241 ft | 303 kts | 40° |
| 2026-05-06 22:47 | 40.43336 | -74.20269 | 6058 ft | 301 kts | 40° |
| 2026-05-06 22:47 | 40.44842 | -74.18350 | 5892 ft | 301 kts | 40° |
| 2026-05-06 22:47 | 40.46340 | -74.16443 | 5716 ft | 299 kts | 40° |
| 2026-05-06 22:48 | 40.47833 | -74.14541 | 5558 ft | 298 kts | 40° |
| 2026-05-06 22:48 | 40.49319 | -74.12646 | 5379 ft | 297 kts | 40° |
| 2026-05-06 22:48 | 40.50794 | -74.10763 | 5217 ft | 296 kts | 40° |
| 2026-05-06 22:48 | 40.52340 | -74.08999 | 5049 ft | 292 kts | 30° |
| 2026-05-06 22:49 | 40.54034 | -74.07562 | 4882 ft | 289 kts | 28° |
| 2026-05-06 22:49 | 40.55724 | -74.06137 | 4729 ft | 288 kts | 28° |
| 2026-05-06 22:49 | 40.57406 | -74.04711 | 4567 ft | 288 kts | 28° |
| 2026-05-06 22:49 | 40.59082 | -74.03286 | 4397 ft | 286 kts | 28° |
| 2026-05-06 22:50 | 40.60753 | -74.01868 | 4241 ft | 286 kts | 28° |
| 2026-05-06 22:50 | 40.62427 | -74.00453 | 4084 ft | 285 kts | 28° |
| 2026-05-06 22:50 | 40.64147 | -73.99175 | 3924 ft | 283 kts | 19° |
| 2026-05-06 22:50 | 40.65927 | -73.98154 | 3794 ft | 282 kts | 18° |
| 2026-05-06 22:51 | 40.67742 | -73.97154 | 3661 ft | 283 kts | 17° |
| 2026-05-06 22:51 | 40.69559 | -73.96157 | 3511 ft | 282 kts | 17° |
| 2026-05-06 22:51 | 40.71362 | -73.95152 | 3361 ft | 280 kts | 18° |
| 2026-05-06 22:51 | 40.73160 | -73.94158 | 3210 ft | 280 kts | 17° |
| 2026-05-06 22:52 | 40.74957 | -73.93167 | 3076 ft | 279 kts | 17° |
| 2026-05-06 22:52 | 40.76746 | -73.92184 | 2995 ft | 278 kts | 18° |
| 2026-05-06 22:52 | 40.78541 | -73.91209 | 2996 ft | 279 kts | 17° |
| 2026-05-06 22:52 | 40.80331 | -73.90237 | 2998 ft | 279 kts | 17° |
| 2026-05-06 22:53 | 40.82127 | -73.89252 | 2997 ft | 279 kts | 19° |
| 2026-05-06 22:53 | 40.83813 | -73.87951 | 2996 ft | 281 kts | 30° |
| 2026-05-06 22:53 | 40.85437 | -73.86476 | 3008 ft | 283 kts | 30° |
| 2026-05-06 22:53 | 40.87053 | -73.85049 | 2993 ft | 273 kts | 29° |
| 2026-05-06 22:54 | 40.88573 | -73.83700 | 2996 ft | 259 kts | 30° |
| 2026-05-06 22:54 | 40.90043 | -73.82401 | 2994 ft | 251 kts | 29° |
| 2026-05-06 22:54 | 40.91493 | -73.81108 | 3007 ft | 252 kts | 29° |
| 2026-05-06 22:54 | 40.92944 | -73.79807 | 3004 ft | 252 kts | 29° |
| 2026-05-06 22:55 | 40.94409 | -73.78517 | 3005 ft | 254 kts | 29° |
| 2026-05-06 22:55 | 40.95841 | -73.77245 | 3031 ft | 240 kts | 29° |
| 2026-05-06 22:55 | 40.97213 | -73.76014 | 3005 ft | 235 kts | 29° |
| 2026-05-06 22:55 | 40.98457 | -73.74662 | 2996 ft | 238 kts | 50° |
| 2026-05-06 22:56 | 40.99010 | -73.72627 | 3005 ft | 238 kts | 91° |
| 2026-05-06 22:56 | 40.98591 | -73.70575 | 3012 ft | 229 kts | 129° |
| 2026-05-06 22:56 | 40.97451 | -73.69237 | 3010 ft | 214 kts | 163° |
| 2026-05-06 22:56 | 40.96062 | -73.68886 | 3007 ft | 199 kts | 192° |
| 2026-05-06 22:57 | 40.94790 | -73.69445 | 3006 ft | 189 kts | 219° |
| 2026-05-06 22:57 | 40.93903 | -73.70665 | 3006 ft | 183 kts | 242° |
| 2026-05-06 22:57 | 40.93528 | -73.72255 | 3004 ft | 181 kts | 265° |
| 2026-05-06 22:57 | 40.93516 | -73.73889 | 3021 ft | 175 kts | 260° |
| 2026-05-06 22:58 | 40.92855 | -73.75211 | 3014 ft | 181 kts | 219° |
| 2026-05-06 22:58 | 40.91769 | -73.76049 | 2959 ft | 179 kts | 218° |
| 2026-05-06 22:58 | 40.90742 | -73.76932 | 2793 ft | 176 kts | 218° |
| 2026-05-06 22:58 | 40.89731 | -73.77785 | 2578 ft | 170 kts | 218° |
| 2026-05-06 22:59 | 40.88741 | -73.78613 | 2365 ft | 167 kts | 218° |
| 2026-05-06 22:59 | 40.87763 | -73.79427 | 2144 ft | 166 kts | 217° |
| 2026-05-06 22:59 | 40.86782 | -73.80242 | 1926 ft | 166 kts | 217° |
| 2026-05-06 22:59 | 40.85807 | -73.81050 | 1710 ft | 164 kts | 218° |
| 2026-05-06 23:00 | 40.84862 | -73.81831 | 1465 ft | 153 kts | 216° |
| 2026-05-06 23:00 | 40.84006 | -73.82539 | 1311 ft | 140 kts | 217° |
| 2026-05-06 23:00 | 40.83207 | -73.83203 | 1098 ft | 135 kts | 216° |
| 2026-05-06 23:00 | 40.82419 | -73.83856 | 925 ft | 133 kts | 215° |
| 2026-05-06 23:01 | 40.81633 | -73.84508 | 754 ft | 133 kts | 214° |
| 2026-05-06 23:01 | 40.80854 | -73.85153 | 586 ft | 132 kts | 214° |
| 2026-05-06 23:01 | 40.80076 | -73.85797 | 415 ft | 131 kts | 213° |
| 2026-05-06 23:01 | 40.79299 | -73.86430 | 248 ft | 133 kts | 212° |
| 2026-05-06 23:02 | 40.78521 | -73.87087 | 47 ft | 131 kts | 213° |
| 2026-05-06 23:02 | 40.77820 | -73.87667 | 20 ft | 96 kts | 212° |
| 2026-05-06 23:02 | 40.77469 | -73.87952 | 21 ft | 23 kts | 207° |
| 2026-05-06 23:02 | 40.77366 | -73.87993 | 20 ft | 21 kts | 190° |
| 2026-05-06 23:03 | 40.77295 | -73.87977 | 20 ft | 5 kts | 124° |
| 2026-05-06 23:03 | 40.77306 | -73.87944 | 20 ft | 8 kts | 40° |
| 2026-05-06 23:03 | 40.77358 | -73.87899 | 21 ft | 9 kts | 33° |
| 2026-05-06 23:03 | 40.77414 | -73.87852 | 21 ft | 12 kts | 32° |
| 2026-05-06 23:04 | 40.77508 | -73.87776 | 21 ft | 16 kts | 31° |
| 2026-05-06 23:04 | 40.77593 | -73.87707 | 21 ft | 14 kts | 31° |
| 2026-05-06 23:04 | 40.77677 | -73.87638 | 21 ft | 19 kts | 32° |
| 2026-05-06 23:04 | 40.77739 | -73.87499 | 22 ft | 18 kts | 68° |
| 2026-05-06 23:05 | 40.77778 | -73.87344 | 23 ft | 18 kts | 82° |
| 2026-05-06 23:05 | 40.77744 | -73.87192 | 21 ft | 18 kts | 121° |
| 2026-05-06 23:05 | 40.77676 | -73.87057 | 20 ft | 17 kts | 125° |
| 2026-05-06 23:05 | 40.77610 | -73.86924 | 20 ft | 17 kts | 122° |
| 2026-05-06 23:06 | 40.77543 | -73.86790 | 22 ft | 18 kts | 128° |
| 2026-05-06 23:06 | 40.77471 | -73.86661 | 20 ft | 18 kts | 122° |
| 2026-05-06 23:06 | 40.77396 | -73.86502 | 20 ft | 24 kts | 121° |
| 2026-05-06 23:06 | 40.77309 | -73.86316 | 20 ft | 24 kts | 122° |
| 2026-05-06 23:07 | 40.77218 | -73.86147 | 21 ft | 17 kts | 145° |
| 2026-05-06 23:07 | 40.77120 | -73.86148 | 21 ft | 12 kts | 196° |
| 2026-05-06 23:07 | 40.77058 | -73.86174 | 21 ft | 7 kts | 173° |
| 2026-05-06 23:07 | 40.77035 | -73.86155 | 21 ft | 3 kts | 140° |
| 2026-05-06 23:08 | 40.77023 | -73.86143 | 21 ft | 0 kts | 140° |